createdAt,value
2018-01-30T00:01:31.046Z,8.70
2018-01-30T00:03:59.310Z,8.70
2018-01-30T00:06:27.595Z,8.70
2018-01-30T00:08:55.855Z,8.60
2018-01-30T00:11:23.370Z,8.60
2018-01-30T00:13:50.858Z,8.60
2018-01-30T00:16:18.350Z,8.50
2018-01-30T00:18:46.630Z,8.40
2018-01-30T00:21:14.118Z,8.40
2018-01-30T00:23:41.634Z,8.40
2018-01-30T00:26:09.895Z,8.30
2018-01-30T00:28:37.407Z,8.30
2018-01-30T00:31:04.906Z,8.30
2018-01-30T00:33:32.421Z,8.30
2018-01-30T00:35:59.919Z,8.20
2018-01-30T00:38:27.413Z,8.20
2018-01-30T00:40:54.930Z,8.20
2018-01-30T00:43:22.432Z,8.20
2018-01-30T00:45:49.950Z,8.10
2018-01-30T00:48:17.446Z,8.10
2018-01-30T00:50:44.962Z,8.10
2018-01-30T00:53:12.454Z,8.20
2018-01-30T00:55:40.740Z,8.20
2018-01-30T00:58:08.230Z,8.20
2018-01-30T01:00:35.746Z,8.20
2018-01-30T01:03:04.007Z,8.10
2018-01-30T01:05:31.503Z,8.10
2018-01-30T01:07:59.023Z,8.10
2018-01-30T01:10:26.519Z,8.00
2018-01-30T01:12:54.043Z,8.00
2018-01-30T01:15:21.539Z,8.00
2018-01-30T01:17:49.062Z,7.90
2018-01-30T01:20:17.323Z,7.90
2018-01-30T01:22:44.842Z,7.90
2018-01-30T01:25:12.335Z,7.90
2018-01-30T01:27:40.156Z,7.90
2018-01-30T01:30:07.655Z,7.80
2018-01-30T01:32:35.146Z,7.80
2018-01-30T01:35:03.455Z,7.80
2018-01-30T01:37:30.950Z,7.80
2018-01-30T01:39:58.467Z,7.80
2018-01-30T01:42:25.961Z,7.80
2018-01-30T01:44:53.474Z,7.70
2018-01-30T01:47:20.975Z,7.80
2018-01-30T01:49:48.466Z,7.70
2018-01-30T01:52:16.750Z,7.70
2018-01-30T01:54:45.010Z,7.70
2018-01-30T01:57:12.527Z,7.70
2018-01-30T01:59:40.022Z,7.70
2018-01-30T02:02:07.539Z,7.60
2018-01-30T02:04:35.034Z,7.60
2018-01-30T02:07:02.530Z,7.60
2018-01-30T02:09:30.051Z,7.60
2018-01-30T02:11:57.546Z,7.60
2018-01-30T02:14:25.065Z,7.60
2018-01-30T02:16:52.563Z,7.60
2018-01-30T02:19:20.078Z,7.60
2018-01-30T02:21:47.570Z,7.60
2018-01-30T02:24:15.826Z,7.50
2018-01-30T02:26:43.343Z,7.50
2018-01-30T02:29:10.842Z,7.50
2018-01-30T02:31:38.363Z,7.50
2018-01-30T02:34:05.856Z,7.50
2018-01-30T02:36:33.378Z,7.50
2018-01-30T02:39:00.866Z,7.40
2018-01-30T02:41:28.358Z,7.40
2018-01-30T02:43:56.638Z,7.30
2018-01-30T02:46:24.139Z,7.30
2018-01-30T02:48:51.655Z,7.20
2018-01-30T02:51:19.146Z,7.20
2018-01-30T02:53:46.658Z,7.10
2018-01-30T02:56:14.923Z,7.00
2018-01-30T02:58:42.423Z,7.00
2018-01-30T03:01:09.937Z,7.00
2018-01-30T03:03:37.431Z,6.90
2018-01-30T03:06:04.947Z,6.90
2018-01-30T03:08:32.442Z,6.80
2018-01-30T03:10:59.962Z,6.80
2018-01-30T03:13:27.454Z,6.80
2018-01-30T03:15:55.733Z,6.70
2018-01-30T03:18:23.226Z,6.70
2018-01-30T03:20:50.746Z,6.70
2018-01-30T03:23:19.006Z,6.70
2018-01-30T03:25:47.290Z,6.70
2018-01-30T03:28:15.550Z,6.70
2018-01-30T03:30:43.062Z,6.70
2018-01-30T03:33:10.553Z,6.70
2018-01-30T03:35:38.070Z,6.70
2018-01-30T03:38:05.564Z,6.60
2018-01-30T03:40:33.076Z,6.60
2018-01-30T03:43:00.570Z,6.50
2018-01-30T03:45:28.086Z,6.50
2018-01-30T03:47:55.582Z,6.40
2018-01-30T03:50:23.094Z,6.40
2018-01-30T03:52:51.350Z,6.30
2018-01-30T03:55:18.866Z,6.20
2018-01-30T03:57:46.359Z,6.20
2018-01-30T04:00:13.878Z,6.20
2018-01-30T04:02:41.366Z,6.00
2018-01-30T04:05:08.883Z,6.00
2018-01-30T04:07:36.379Z,6.00
2018-01-30T04:10:03.892Z,6.00
2018-01-30T04:12:31.382Z,5.90
2018-01-30T04:14:58.894Z,5.90
2018-01-30T04:17:27.186Z,5.80
2018-01-30T04:19:54.698Z,5.80
2018-01-30T04:22:22.195Z,5.80
2018-01-30T04:24:50.479Z,5.70
2018-01-30T04:27:17.974Z,5.70
2018-01-30T04:29:45.494Z,5.60
2018-01-30T04:32:12.982Z,5.60
2018-01-30T04:34:40.498Z,5.60
2018-01-30T04:37:08.762Z,5.50
2018-01-30T04:39:37.048Z,5.50
2018-01-30T04:42:05.308Z,5.50
2018-01-30T04:44:32.835Z,5.40
2018-01-30T04:47:00.330Z,5.40
2018-01-30T04:49:28.613Z,5.40
2018-01-30T04:51:56.877Z,5.30
2018-01-30T04:54:25.158Z,5.30
2018-01-30T04:56:52.654Z,5.30
2018-01-30T04:59:20.170Z,5.30
2018-01-30T05:01:47.663Z,5.30
2018-01-30T05:04:15.187Z,5.30
2018-01-30T05:06:49.438Z,5.20
2018-01-30T05:09:16.958Z,5.20
2018-01-30T05:11:44.450Z,5.20
2018-01-30T05:14:11.966Z,5.10
2018-01-30T05:19:12.534Z,5.10
2018-01-30T05:21:41.702Z,5.10
2018-01-30T05:24:09.218Z,5.00
2018-01-30T05:26:36.706Z,5.00
2018-01-30T05:29:04.222Z,5.00
2018-01-30T05:31:32.482Z,5.00
2018-01-30T05:34:00.770Z,4.90
2018-01-30T05:36:29.038Z,4.90
2018-01-30T05:38:57.328Z,4.80
2018-01-30T05:41:26.842Z,4.80
2018-01-30T05:43:54.339Z,4.80
2018-01-30T05:46:21.859Z,4.80
2018-01-30T05:48:49.354Z,4.80
2018-01-30T05:51:21.914Z,4.70
2018-01-30T05:53:50.886Z,4.70
2018-01-30T05:56:18.407Z,4.70
2018-01-30T05:58:45.898Z,4.60
2018-01-30T06:01:13.399Z,4.60
2018-01-30T06:03:40.914Z,4.50
2018-01-30T06:06:08.408Z,4.50
2018-01-30T06:08:35.930Z,4.50
2018-01-30T06:11:03.426Z,4.50
2018-01-30T06:13:30.942Z,4.50
2018-01-30T06:15:59.202Z,4.50
2018-01-30T06:18:27.485Z,4.50
2018-01-30T06:20:55.752Z,4.50
2018-01-30T06:23:23.248Z,4.50
2018-01-30T06:25:50.766Z,4.50
2018-01-30T06:28:18.258Z,4.50
2018-01-30T06:30:45.774Z,4.50
2018-01-30T06:33:13.266Z,4.50
2018-01-30T06:35:41.545Z,4.30
2018-01-30T06:38:09.082Z,4.30
2018-01-30T06:40:36.552Z,4.30
2018-01-30T06:43:04.839Z,4.30
2018-01-30T06:45:32.331Z,4.30
2018-01-30T06:47:59.846Z,4.20
2018-01-30T06:50:28.103Z,4.10
2018-01-30T06:52:55.618Z,4.10
2018-01-30T06:55:23.105Z,4.00
2018-01-30T06:57:50.598Z,4.00
2018-01-30T07:00:18.882Z,3.90
2018-01-30T07:02:46.374Z,3.90
2018-01-30T07:05:13.891Z,3.80
2018-01-30T07:07:42.145Z,3.70
2018-01-30T07:10:09.666Z,3.80
2018-01-30T07:12:37.162Z,3.80
2018-01-30T07:15:04.661Z,3.80
2018-01-30T07:17:32.179Z,3.70
2018-01-30T07:19:59.675Z,3.70
2018-01-30T07:22:27.194Z,3.70
2018-01-30T07:24:54.686Z,3.70
2018-01-30T07:27:22.211Z,3.70
2018-01-30T07:29:49.711Z,3.70
2018-01-30T07:32:17.207Z,3.80
2018-01-30T07:34:44.727Z,3.80
2018-01-30T07:37:12.227Z,3.80
2018-01-30T07:39:39.748Z,3.80
2018-01-30T07:42:07.243Z,3.70
2018-01-30T07:44:34.758Z,3.70
2018-01-30T07:47:02.250Z,3.70
2018-01-30T07:49:29.742Z,3.70
2018-01-30T07:51:57.262Z,3.70
2018-01-30T07:54:24.758Z,3.60
2018-01-30T07:56:52.316Z,3.60
2018-01-30T07:59:19.786Z,3.70
2018-01-30T08:01:48.075Z,3.80
2018-01-30T08:04:16.335Z,3.80
2018-01-30T08:06:44.598Z,3.80
2018-01-30T08:09:12.118Z,3.80
2018-01-30T08:11:39.618Z,3.80
2018-01-30T08:14:07.138Z,3.90
2018-01-30T08:16:34.646Z,3.90
2018-01-30T08:19:02.926Z,4.10
2018-01-30T08:21:31.182Z,4.20
2018-01-30T08:23:58.679Z,4.20
2018-01-30T08:26:26.199Z,4.30
2018-01-30T08:28:54.474Z,4.50
2018-01-30T08:31:21.991Z,4.40
2018-01-30T08:33:49.487Z,4.60
2018-01-30T08:36:16.998Z,4.70
2018-01-30T08:38:44.488Z,4.80
2018-01-30T08:41:11.982Z,5.00
2018-01-30T08:43:40.270Z,5.70
2018-01-30T08:46:08.667Z,5.70
2018-01-30T08:48:36.182Z,6.10
2018-01-30T08:51:03.674Z,6.60
2018-01-30T08:53:31.194Z,7.40
2018-01-30T08:55:58.686Z,8.20
2018-01-30T08:58:28.782Z,11.80
2018-01-30T09:00:56.283Z,11.80
2018-01-30T09:03:23.810Z,13.60
2018-01-30T09:05:52.079Z,17.00
2018-01-30T09:08:20.362Z,18.40
2018-01-30T09:10:48.630Z,19.40
2018-01-30T09:13:16.918Z,19.90
2018-01-30T09:15:45.186Z,20.00
2018-01-30T09:18:13.451Z,20.10
2018-01-30T09:20:40.970Z,20.10
2018-01-30T09:23:08.466Z,20.40
2018-01-30T09:25:35.986Z,20.90
2018-01-30T09:28:03.483Z,20.80
2018-01-30T09:30:31.002Z,20.10
2018-01-30T09:32:58.506Z,20.00
2018-01-30T09:35:26.003Z,19.30
2018-01-30T09:37:53.527Z,19.90
2018-01-30T09:40:21.794Z,19.60
2018-01-30T09:42:49.318Z,19.60
2018-01-30T09:45:16.814Z,19.30
2018-01-30T09:47:44.337Z,18.70
2018-01-30T09:50:11.838Z,19.50
2018-01-30T09:52:40.102Z,21.00
2018-01-30T09:55:07.626Z,20.90
2018-01-30T09:57:35.126Z,20.50
2018-01-30T10:00:02.652Z,20.00
2018-01-30T10:02:30.154Z,20.20
2018-01-30T10:04:58.434Z,19.40
2018-01-30T10:07:26.694Z,19.50
2018-01-30T10:09:54.190Z,19.50
2018-01-30T10:12:21.710Z,19.30
2018-01-30T10:14:49.211Z,19.70
2018-01-30T10:17:16.730Z,19.40
2018-01-30T10:19:44.231Z,19.20
2018-01-30T10:22:11.749Z,19.30
2018-01-30T10:24:39.247Z,19.40
2018-01-30T10:27:06.751Z,19.90
2018-01-30T10:29:34.275Z,19.70
2018-01-30T10:32:01.778Z,20.00
2018-01-30T10:34:29.298Z,20.40
2018-01-30T10:36:56.836Z,19.70
2018-01-30T10:39:24.358Z,19.90
2018-01-30T10:41:51.858Z,21.20
2018-01-30T10:44:19.382Z,22.20
2018-01-30T10:46:47.650Z,23.50
2018-01-30T10:49:15.150Z,23.40
2018-01-30T10:51:42.678Z,23.80
2018-01-30T10:54:10.943Z,25.00
2018-01-30T10:56:38.467Z,24.90
2018-01-30T10:59:05.962Z,24.20
2018-01-30T11:01:33.483Z,23.70
2018-01-30T11:04:00.982Z,24.00
2018-01-30T11:06:29.246Z,21.10
2018-01-30T11:08:56.773Z,21.00
2018-01-30T11:11:24.270Z,20.80
2018-01-30T11:13:51.790Z,20.20
2018-01-30T11:16:19.291Z,18.70
2018-01-30T11:18:47.571Z,16.50
2018-01-30T11:21:15.836Z,15.70
2018-01-30T11:23:43.347Z,15.70
2018-01-30T11:26:10.866Z,15.80
2018-01-30T11:28:39.132Z,15.50
2018-01-30T11:31:06.659Z,15.50
2018-01-30T11:33:34.158Z,15.10
2018-01-30T11:36:02.447Z,15.10
2018-01-30T11:38:30.706Z,15.40
2018-01-30T11:40:58.983Z,15.80
2018-01-30T11:43:27.270Z,16.00
2018-01-30T11:45:55.538Z,15.90
2018-01-30T11:48:23.823Z,15.90
2018-01-30T11:50:52.086Z,16.40
2018-01-30T11:53:20.426Z,16.60
2018-01-30T11:55:47.906Z,16.60
2018-01-30T11:58:15.402Z,16.60
2018-01-30T12:00:43.685Z,16.40
2018-01-30T12:03:11.214Z,16.30
2018-01-30T12:05:38.731Z,16.80
2018-01-30T12:08:06.235Z,17.20
2018-01-30T12:10:34.525Z,17.20
2018-01-30T12:13:02.786Z,17.70
2018-01-30T12:15:31.051Z,18.00
2018-01-30T12:17:58.598Z,18.00
2018-01-30T12:20:26.094Z,17.60
2018-01-30T12:22:54.378Z,16.30
2018-01-30T12:25:21.874Z,16.30
2018-01-30T12:27:49.389Z,16.20
2018-01-30T12:30:17.650Z,15.80
2018-01-30T12:32:45.914Z,15.50
2018-01-30T12:35:13.434Z,15.40
2018-01-30T12:37:40.935Z,14.70
2018-01-30T12:40:08.454Z,14.80
2018-01-30T12:42:35.951Z,15.20
2018-01-30T12:45:03.478Z,15.30
2018-01-30T12:47:30.970Z,15.50
2018-01-30T12:49:58.467Z,15.70
2018-01-30T12:52:25.990Z,15.40
2018-01-30T12:54:53.487Z,15.00
2018-01-30T12:57:21.010Z,14.50
2018-01-30T12:59:48.506Z,14.40
2018-01-30T13:02:16.030Z,14.10
2018-01-30T13:04:44.294Z,14.30
2018-01-30T13:07:11.815Z,14.30
2018-01-30T13:09:39.306Z,14.40
2018-01-30T13:12:06.802Z,14.70
2018-01-30T13:14:34.322Z,14.90
2018-01-30T13:17:01.818Z,14.70
2018-01-30T13:19:29.339Z,14.50
2018-01-30T13:21:56.834Z,14.50
2018-01-30T13:24:24.357Z,14.80
2018-01-30T13:26:51.854Z,15.00
2018-01-30T13:29:19.375Z,15.20
2018-01-30T13:31:46.891Z,15.00
2018-01-30T13:34:14.386Z,14.80
2018-01-30T13:36:41.908Z,14.50
2018-01-30T13:39:09.403Z,14.50
2018-01-30T13:41:36.922Z,14.80
2018-01-30T13:44:04.423Z,15.00
2018-01-30T13:46:31.942Z,15.00
2018-01-30T13:48:59.438Z,14.90
2018-01-30T13:51:26.963Z,14.80
2018-01-30T13:53:54.458Z,14.90
2018-01-30T13:56:21.958Z,14.80
2018-01-30T13:58:49.479Z,14.90
2018-01-30T14:01:16.978Z,14.90
2018-01-30T14:03:44.498Z,14.90
2018-01-30T14:06:11.994Z,15.00
2018-01-30T14:08:39.523Z,15.00
2018-01-30T14:11:07.026Z,15.00
2018-01-30T14:13:34.546Z,14.70
2018-01-30T14:16:02.810Z,14.20
2018-01-30T14:18:30.306Z,14.10
2018-01-30T14:20:57.826Z,14.10
2018-01-30T14:23:25.322Z,13.90
2018-01-30T14:25:52.842Z,14.00
2018-01-30T14:28:20.338Z,13.80
2018-01-30T14:30:47.862Z,13.60
2018-01-30T14:33:15.358Z,13.20
2018-01-30T14:35:42.883Z,13.00
2018-01-30T14:38:11.150Z,12.80
2018-01-30T14:40:38.648Z,12.80
2018-01-30T14:43:06.170Z,12.60
2018-01-30T14:45:33.662Z,12.50
2018-01-30T14:48:01.175Z,12.30
2018-01-30T14:50:28.671Z,12.10
2018-01-30T14:52:56.958Z,12.00
2018-01-30T14:55:24.456Z,12.00
2018-01-30T14:57:51.983Z,12.00
2018-01-30T15:00:19.482Z,12.10
2018-01-30T15:02:46.980Z,12.00
2018-01-30T15:05:15.266Z,12.00
2018-01-30T15:07:42.762Z,12.00
2018-01-30T15:10:10.284Z,11.90
2018-01-30T15:12:37.783Z,11.80
2018-01-30T15:15:05.307Z,11.80
2018-01-30T15:17:32.872Z,11.60
2018-01-30T15:20:00.391Z,11.50
2018-01-30T15:22:27.890Z,11.40
2018-01-30T15:24:55.390Z,11.30
2018-01-30T15:27:22.902Z,11.30
2018-01-30T15:29:50.409Z,11.10
2018-01-30T15:32:17.935Z,11.00
2018-01-30T15:34:45.431Z,10.90
2018-01-30T15:37:12.959Z,10.80
2018-01-30T15:39:40.455Z,10.70
2018-01-30T15:42:08.039Z,10.60
2018-01-30T15:44:36.303Z,10.50
2018-01-30T15:47:04.562Z,10.40
2018-01-30T15:49:32.078Z,10.40
2018-01-30T15:51:59.574Z,10.20
2018-01-30T15:54:27.093Z,10.10
2018-01-30T15:56:54.586Z,9.90
2018-01-30T15:59:22.109Z,9.80
2018-01-30T16:01:49.606Z,9.70
2018-01-30T16:04:17.130Z,9.60
2018-01-30T16:06:44.626Z,9.50
2018-01-30T16:09:12.113Z,9.50
2018-01-30T16:11:40.398Z,9.30
2018-01-30T16:14:07.894Z,9.30
2018-01-30T16:16:35.415Z,9.20
2018-01-30T16:19:02.913Z,9.20
2018-01-30T16:21:30.448Z,9.10
2018-01-30T16:23:57.943Z,8.90
2018-01-30T16:26:25.434Z,8.90
2018-01-30T16:28:53.755Z,8.70
2018-01-30T16:31:21.251Z,8.70
2018-01-30T16:33:48.766Z,8.60
2018-01-30T16:36:16.258Z,8.60
2018-01-30T16:38:43.779Z,8.60
2018-01-30T16:41:11.275Z,8.50
2018-01-30T16:43:38.762Z,8.50
2018-01-30T16:46:07.038Z,8.50
2018-01-30T16:48:35.298Z,8.40
2018-01-30T16:51:02.814Z,8.40
2018-01-30T16:53:30.302Z,8.40
2018-01-30T16:55:57.826Z,8.40
2018-01-30T16:58:25.326Z,8.40
2018-01-30T17:00:52.823Z,8.40
2018-01-30T17:03:20.346Z,8.30
2018-01-30T17:05:47.838Z,8.30
2018-01-30T17:08:15.356Z,8.30
2018-01-30T17:10:42.850Z,8.30
2018-01-30T17:13:11.140Z,8.30
2018-01-30T17:15:38.637Z,8.30
2018-01-30T17:18:06.138Z,8.30
2018-01-30T17:20:34.422Z,8.30
2018-01-30T17:23:01.918Z,8.30
2018-01-30T17:25:29.434Z,8.30
2018-01-30T17:27:56.929Z,8.30
2018-01-30T17:30:24.450Z,8.20
2018-01-30T17:32:52.711Z,8.20
2018-01-30T17:35:20.970Z,8.10
2018-01-30T17:37:49.993Z,8.10
2018-01-30T17:40:18.247Z,8.10
2018-01-30T17:42:45.763Z,8.10
2018-01-30T17:45:13.259Z,8.00
2018-01-30T17:47:40.770Z,8.00
2018-01-30T17:50:08.263Z,8.00
2018-01-30T17:52:35.759Z,7.90
2018-01-30T17:55:04.042Z,7.80
2018-01-30T17:57:31.540Z,7.80
2018-01-30T17:59:59.058Z,7.70
2018-01-30T18:02:27.319Z,7.50
2018-01-30T18:04:55.610Z,7.40
2018-01-30T18:07:23.107Z,7.40
2018-01-30T18:09:50.597Z,7.40
2018-01-30T18:12:18.115Z,7.30
2018-01-30T18:14:45.615Z,7.30
2018-01-30T18:17:13.134Z,7.20
2018-01-30T18:19:40.634Z,7.20
2018-01-30T18:22:08.155Z,7.20
2018-01-30T18:24:35.650Z,7.10
2018-01-30T18:27:03.146Z,7.00
2018-01-30T18:29:30.666Z,7.00
2018-01-30T18:31:58.163Z,7.00
2018-01-30T18:34:25.686Z,6.90
2018-01-30T18:36:53.183Z,6.90
2018-01-30T18:39:20.705Z,6.90
2018-01-30T18:41:48.199Z,6.80
2018-01-30T18:44:15.698Z,6.80
2018-01-30T18:46:43.226Z,6.80
2018-01-30T18:49:10.722Z,6.80
2018-01-30T18:51:38.234Z,6.70
2018-01-30T18:54:05.730Z,6.70
2018-01-30T18:56:33.246Z,6.60
2018-01-30T18:59:00.734Z,6.60
2018-01-30T19:01:28.254Z,6.50
2018-01-30T19:03:55.754Z,6.50
2018-01-30T19:06:23.246Z,6.40
2018-01-30T19:08:50.766Z,6.40
2018-01-30T19:11:18.266Z,6.30
2018-01-30T19:13:46.561Z,6.10
2018-01-30T19:16:14.825Z,6.00
2018-01-30T19:18:43.111Z,6.00
2018-01-30T19:21:11.374Z,5.90
2018-01-30T19:23:39.642Z,5.90
2018-01-30T19:26:07.162Z,5.90
2018-01-30T19:28:34.658Z,5.90
2018-01-30T19:31:02.950Z,5.80
2018-01-30T19:33:31.209Z,5.80
2018-01-30T19:35:58.730Z,5.70
2018-01-30T19:38:26.223Z,5.80
2018-01-30T19:40:53.738Z,5.80
2018-01-30T19:43:21.238Z,5.80
2018-01-30T19:45:48.734Z,5.80
2018-01-30T19:48:16.258Z,5.80
2018-01-30T19:50:43.754Z,5.80
2018-01-30T19:53:11.278Z,5.80
2018-01-30T19:55:39.538Z,5.80
2018-01-30T19:58:07.059Z,5.70
2018-01-30T20:00:34.563Z,5.70
2018-01-30T20:03:03.570Z,5.70
2018-01-30T20:05:31.862Z,5.60
2018-01-30T20:08:00.130Z,5.70
2018-01-30T20:10:28.418Z,5.60
2018-01-30T20:12:55.925Z,5.60
2018-01-30T20:15:23.451Z,5.60
2018-01-30T20:17:50.950Z,5.60
2018-01-30T20:20:18.473Z,5.60
2018-01-30T20:22:45.970Z,5.60
2018-01-30T20:25:13.490Z,5.60
2018-01-30T20:27:40.991Z,5.50
2018-01-30T20:30:08.478Z,5.50
2018-01-30T20:32:36.765Z,5.40
2018-01-30T20:35:04.262Z,5.40
2018-01-30T20:37:31.778Z,5.40
2018-01-30T20:39:59.282Z,5.40
2018-01-30T20:42:26.802Z,5.40
2018-01-30T20:44:54.302Z,5.40
2018-01-30T20:47:21.829Z,5.30
2018-01-30T20:49:49.331Z,5.30
2018-01-30T20:52:16.834Z,5.20
2018-01-30T20:54:44.358Z,5.10
2018-01-30T20:57:11.854Z,5.20
2018-01-30T20:59:39.387Z,5.20
2018-01-30T21:02:07.655Z,5.10
2018-01-30T21:04:35.180Z,5.10
2018-01-30T21:07:02.699Z,5.10
2018-01-30T21:09:30.986Z,5.10
2018-01-30T21:11:58.482Z,5.10
2018-01-30T21:14:25.977Z,5.10
2018-01-30T21:16:54.262Z,5.00
2018-01-30T21:19:22.529Z,5.10
2018-01-30T21:21:50.814Z,5.00
2018-01-30T21:24:19.078Z,5.00
2018-01-30T21:26:47.367Z,4.90
2018-01-30T21:29:15.644Z,4.90
2018-01-30T21:31:43.914Z,4.90
2018-01-30T21:34:12.206Z,4.90
2018-01-30T21:36:39.702Z,4.90
2018-01-30T21:39:07.226Z,4.80
2018-01-30T21:41:34.722Z,4.80
2018-01-30T21:44:02.246Z,4.80
2018-01-30T21:46:29.746Z,4.80
2018-01-30T21:48:57.242Z,4.80
2018-01-30T21:51:25.532Z,4.90
2018-01-30T21:53:53.031Z,4.90
2018-01-30T21:56:20.550Z,4.90
2018-01-30T21:58:48.046Z,5.00
2018-01-30T22:01:15.566Z,5.00
2018-01-30T22:03:43.067Z,5.00
2018-01-30T22:06:10.596Z,5.00
2018-01-30T22:08:38.102Z,5.10
2018-01-30T22:11:05.603Z,5.00
2018-01-30T22:13:33.126Z,5.00
2018-01-30T22:16:00.627Z,5.00
2018-01-30T22:18:28.146Z,5.00
2018-01-30T22:20:55.643Z,5.00
2018-01-30T22:23:23.195Z,5.00
2018-01-30T22:25:51.446Z,5.10
2018-01-30T22:28:19.709Z,5.20
2018-01-30T22:30:47.233Z,5.20
2018-01-30T22:33:14.737Z,5.20
2018-01-30T22:35:43.045Z,5.20
2018-01-30T22:38:10.546Z,5.20
2018-01-30T22:40:38.037Z,5.30
2018-01-30T22:43:06.322Z,5.30
2018-01-30T22:45:34.587Z,5.30
